sensor_id;sensor_type;location;lat;lon;timestamp;temperature;humidity
43225;DHT22;28834;48.720;9.208;2022-09-01T00:01:55;14.60;99.90
43225;DHT22;28834;48.720;9.208;2022-09-01T00:04:23;14.60;99.90
43225;DHT22;28834;48.720;9.208;2022-09-01T00:06:51;14.50;99.90
43225;DHT22;28834;48.720;9.208;2022-09-01T00:09:20;14.60;99.90
43225;DHT22;28834;48.720;9.208;2022-09-01T00:11:49;14.50;99.90
43225;DHT22;28834;48.720;9.208;2022-09-01T00:14:15;14.50;99.90
43225;DHT22;28834;48.720;9.208;2022-09-01T00:16:41;14.50;99.90
43225;DHT22;28834;48.720;9.208;2022-09-01T00:19:07;14.50;99.90
43225;DHT22;28834;48.720;9.208;2022-09-01T00:21:39;14.50;99.90
43225;DHT22;28834;48.720;9.208;2022-09-01T00:24:06;14.50;99.90
43225;DHT22;28834;48.720;9.208;2022-09-01T00:26:32;14.50;99.90
43225;DHT22;28834;48.720;9.208;2022-09-01T00:28:58;14.50;99.90
43225;DHT22;28834;48.720;9.208;2022-09-01T00:31:24;14.50;99.90
43225;DHT22;28834;48.720;9.208;2022-09-01T00:33:50;14.40;99.90
43225;DHT22;28834;48.720;9.208;2022-09-01T00:36:17;14.40;99.90
43225;DHT22;28834;48.720;9.208;2022-09-01T00:38:43;14.40;99.90
43225;DHT22;28834;48.720;9.208;2022-09-01T00:41:09;14.40;99.90
43225;DHT22;28834;48.720;9.208;2022-09-01T00:43:41;14.40;99.90
43225;DHT22;28834;48.720;9.208;2022-09-01T00:46:22;14.40;99.90
43225;DHT22;28834;48.720;9.208;2022-09-01T00:48:56;14.40;99.90
43225;DHT22;28834;48.720;9.208;2022-09-01T00:51:24;14.30;99.90
43225;DHT22;28834;48.720;9.208;2022-09-01T00:53:50;14.30;99.90
43225;DHT22;28834;48.720;9.208;2022-09-01T00:56:17;14.30;99.90
43225;DHT22;28834;48.720;9.208;2022-09-01T00:58:42;14.30;99.90
43225;DHT22;28834;48.720;9.208;2022-09-01T01:01:10;14.40;99.90
43225;DHT22;28834;48.720;9.208;2022-09-01T01:03:37;14.30;99.90
43225;DHT22;28834;48.720;9.208;2022-09-01T01:06:07;14.30;99.90
43225;DHT22;28834;48.720;9.208;2022-09-01T01:08:37;14.30;99.90
43225;DHT22;28834;48.720;9.208;2022-09-01T01:11:11;14.30;99.90
43225;DHT22;28834;48.720;9.208;2022-09-01T01:16:21;14.30;99.90
43225;DHT22;28834;48.720;9.208;2022-09-01T01:18:47;14.30;99.90
43225;DHT22;28834;48.720;9.208;2022-09-01T01:21:25;14.30;99.90
43225;DHT22;28834;48.720;9.208;2022-09-01T01:24:32;14.30;99.90
43225;DHT22;28834;48.720;9.208;2022-09-01T01:26:59;14.20;99.90
43225;DHT22;28834;48.720;9.208;2022-09-01T01:29:26;14.20;99.90
43225;DHT22;28834;48.720;9.208;2022-09-01T01:31:55;14.20;99.90
43225;DHT22;28834;48.720;9.208;2022-09-01T01:34:21;14.20;99.90
43225;DHT22;28834;48.720;9.208;2022-09-01T01:36:47;14.10;99.90
43225;DHT22;28834;48.720;9.208;2022-09-01T01:39:18;14.10;99.90
43225;DHT22;28834;48.720;9.208;2022-09-01T01:41:44;14.00;99.90
43225;DHT22;28834;48.720;9.208;2022-09-01T01:44:15;14.10;99.90
43225;DHT22;28834;48.720;9.208;2022-09-01T01:46:44;14.00;99.90
43225;DHT22;28834;48.720;9.208;2022-09-01T01:49:12;14.00;99.90
43225;DHT22;28834;48.720;9.208;2022-09-01T01:51:40;14.10;99.90
43225;DHT22;28834;48.720;9.208;2022-09-01T01:54:06;14.00;99.90
43225;DHT22;28834;48.720;9.208;2022-09-01T01:56:33;14.00;99.90
43225;DHT22;28834;48.720;9.208;2022-09-01T01:59:00;14.10;99.90
43225;DHT22;28834;48.720;9.208;2022-09-01T02:01:27;14.00;99.90
43225;DHT22;28834;48.720;9.208;2022-09-01T02:03:54;14.00;99.90
43225;DHT22;28834;48.720;9.208;2022-09-01T02:06:22;14.00;99.90
43225;DHT22;28834;48.720;9.208;2022-09-01T02:08:51;14.00;99.90
43225;DHT22;28834;48.720;9.208;2022-09-01T02:11:17;13.90;99.90
43225;DHT22;28834;48.720;9.208;2022-09-01T02:13:43;13.90;99.90
43225;DHT22;28834;48.720;9.208;2022-09-01T02:16:11;13.90;99.90
43225;DHT22;28834;48.720;9.208;2022-09-01T02:18:43;13.90;99.90
43225;DHT22;28834;48.720;9.208;2022-09-01T02:21:13;13.80;99.90
43225;DHT22;28834;48.720;9.208;2022-09-01T02:23:45;13.80;99.90
43225;DHT22;28834;48.720;9.208;2022-09-01T02:26:12;13.80;99.90
43225;DHT22;28834;48.720;9.208;2022-09-01T02:28:39;13.90;99.90
43225;DHT22;28834;48.720;9.208;2022-09-01T02:31:08;13.90;99.90
43225;DHT22;28834;48.720;9.208;2022-09-01T02:33:36;13.80;99.90
43225;DHT22;28834;48.720;9.208;2022-09-01T02:36:05;13.90;99.90
43225;DHT22;28834;48.720;9.208;2022-09-01T02:38:31;13.80;99.90
43225;DHT22;28834;48.720;9.208;2022-09-01T02:40:59;13.80;99.90
43225;DHT22;28834;48.720;9.208;2022-09-01T02:43:28;13.80;99.90
43225;DHT22;28834;48.720;9.208;2022-09-01T02:45:56;13.80;99.90
43225;DHT22;28834;48.720;9.208;2022-09-01T02:48:30;13.80;99.90
43225;DHT22;28834;48.720;9.208;2022-09-01T02:51:05;13.80;99.90
43225;DHT22;28834;48.720;9.208;2022-09-01T02:53:33;13.80;99.90
43225;DHT22;28834;48.720;9.208;2022-09-01T02:56:00;13.80;99.90
43225;DHT22;28834;48.720;9.208;2022-09-01T02:58:27;13.70;99.90
43225;DHT22;28834;48.720;9.208;2022-09-01T03:00:55;13.70;99.90
43225;DHT22;28834;48.720;9.208;2022-09-01T03:03:21;13.70;99.90
43225;DHT22;28834;48.720;9.208;2022-09-01T03:05:49;13.60;99.90
43225;DHT22;28834;48.720;9.208;2022-09-01T03:08:21;13.60;99.90
43225;DHT22;28834;48.720;9.208;2022-09-01T03:10:47;13.60;99.90
43225;DHT22;28834;48.720;9.208;2022-09-01T03:13:16;13.60;99.90
43225;DHT22;28834;48.720;9.208;2022-09-01T03:15:43;13.60;99.90
43225;DHT22;28834;48.720;9.208;2022-09-01T03:18:11;13.60;99.90
43225;DHT22;28834;48.720;9.208;2022-09-01T03:20:38;13.60;99.90
43225;DHT22;28834;48.720;9.208;2022-09-01T03:23:10;13.60;99.90
43225;DHT22;28834;48.720;9.208;2022-09-01T03:25:37;13.60;99.90
43225;DHT22;28834;48.720;9.208;2022-09-01T03:28:04;13.60;99.90
43225;DHT22;28834;48.720;9.208;2022-09-01T03:30:31;13.60;99.90
43225;DHT22;28834;48.720;9.208;2022-09-01T03:32:57;13.60;99.90
43225;DHT22;28834;48.720;9.208;2022-09-01T03:35:25;13.60;99.90
43225;DHT22;28834;48.720;9.208;2022-09-01T03:37:51;13.60;99.90
43225;DHT22;28834;48.720;9.208;2022-09-01T03:40:17;13.70;99.90
43225;DHT22;28834;48.720;9.208;2022-09-01T03:42:44;13.60;99.90
43225;DHT22;28834;48.720;9.208;2022-09-01T03:45:11;13.60;99.90
43225;DHT22;28834;48.720;9.208;2022-09-01T03:47:40;13.60;99.90
43225;DHT22;28834;48.720;9.208;2022-09-01T03:50:10;13.60;99.90
43225;DHT22;28834;48.720;9.208;2022-09-01T03:52:46;13.50;99.90
43225;DHT22;28834;48.720;9.208;2022-09-01T03:55:14;13.50;99.90
43225;DHT22;28834;48.720;9.208;2022-09-01T03:57:49;13.50;99.90
43225;DHT22;28834;48.720;9.208;2022-09-01T04:00:17;13.50;99.90
43225;DHT22;28834;48.720;9.208;2022-09-01T04:02:48;13.40;99.90
43225;DHT22;28834;48.720;9.208;2022-09-01T04:05:18;13.40;99.90
43225;DHT22;28834;48.720;9.208;2022-09-01T04:07:54;13.40;99.90
43225;DHT22;28834;48.720;9.208;2022-09-01T04:10:20;13.40;99.90
43225;DHT22;28834;48.720;9.208;2022-09-01T04:12:47;13.40;99.90
43225;DHT22;28834;48.720;9.208;2022-09-01T04:15:14;13.30;99.90
43225;DHT22;28834;48.720;9.208;2022-09-01T04:17:44;13.30;99.90
43225;DHT22;28834;48.720;9.208;2022-09-01T04:20:28;13.30;99.90
43225;DHT22;28834;48.720;9.208;2022-09-01T04:23:07;13.30;99.90
43225;DHT22;28834;48.720;9.208;2022-09-01T04:25:36;13.30;99.90
43225;DHT22;28834;48.720;9.208;2022-09-01T04:28:03;13.40;99.90
43225;DHT22;28834;48.720;9.208;2022-09-01T04:30:38;13.30;99.90
43225;DHT22;28834;48.720;9.208;2022-09-01T04:33:05;13.30;99.90
43225;DHT22;28834;48.720;9.208;2022-09-01T04:35:35;13.30;99.90
43225;DHT22;28834;48.720;9.208;2022-09-01T04:38:01;13.30;99.90
43225;DHT22;28834;48.720;9.208;2022-09-01T04:40:27;13.30;99.90
43225;DHT22;28834;48.720;9.208;2022-09-01T04:42:52;13.20;99.90
43225;DHT22;28834;48.720;9.208;2022-09-01T04:45:18;13.30;99.90
43225;DHT22;28834;48.720;9.208;2022-09-01T04:47:46;13.20;99.90
43225;DHT22;28834;48.720;9.208;2022-09-01T04:50:13;13.20;99.90
43225;DHT22;28834;48.720;9.208;2022-09-01T04:52:42;13.20;99.90
43225;DHT22;28834;48.720;9.208;2022-09-01T04:55:10;13.30;99.90
43225;DHT22;28834;48.720;9.208;2022-09-01T04:57:48;13.30;99.90
43225;DHT22;28834;48.720;9.208;2022-09-01T05:00:19;13.40;99.90
43225;DHT22;28834;48.720;9.208;2022-09-01T05:02:52;13.50;99.90
43225;DHT22;28834;48.720;9.208;2022-09-01T05:05:22;13.50;99.90
43225;DHT22;28834;48.720;9.208;2022-09-01T05:07:48;13.70;99.90
43225;DHT22;28834;48.720;9.208;2022-09-01T05:10:18;13.70;99.90
43225;DHT22;28834;48.720;9.208;2022-09-01T05:12:43;13.80;99.90
43225;DHT22;28834;48.720;9.208;2022-09-01T05:15:12;13.90;99.90
43225;DHT22;28834;48.720;9.208;2022-09-01T05:17:38;13.90;99.90
43225;DHT22;28834;48.720;9.208;2022-09-01T05:20:05;13.90;99.90
43225;DHT22;28834;48.720;9.208;2022-09-01T05:22:32;13.90;99.90
43225;DHT22;28834;48.720;9.208;2022-09-01T05:24:59;13.90;99.90
43225;DHT22;28834;48.720;9.208;2022-09-01T05:27:29;14.00;99.90
43225;DHT22;28834;48.720;9.208;2022-09-01T05:29:55;14.00;99.90
43225;DHT22;28834;48.720;9.208;2022-09-01T05:32:24;13.90;99.90
43225;DHT22;28834;48.720;9.208;2022-09-01T05:34:51;13.90;99.90
43225;DHT22;28834;48.720;9.208;2022-09-01T05:37:17;14.00;99.90
43225;DHT22;28834;48.720;9.208;2022-09-01T05:39:45;14.00;99.90
43225;DHT22;28834;48.720;9.208;2022-09-01T05:42:10;14.00;99.90
43225;DHT22;28834;48.720;9.208;2022-09-01T05:44:38;14.00;99.90
43225;DHT22;28834;48.720;9.208;2022-09-01T05:47:08;14.00;99.90
43225;DHT22;28834;48.720;9.208;2022-09-01T05:49:36;14.00;99.90
43225;DHT22;28834;48.720;9.208;2022-09-01T05:52:04;14.00;99.90
43225;DHT22;28834;48.720;9.208;2022-09-01T05:54:29;14.00;99.90
43225;DHT22;28834;48.720;9.208;2022-09-01T05:56:56;14.00;99.90
43225;DHT22;28834;48.720;9.208;2022-09-01T05:59:23;14.00;99.90
43225;DHT22;28834;48.720;9.208;2022-09-01T06:01:49;14.10;99.90
43225;DHT22;28834;48.720;9.208;2022-09-01T06:04:15;14.10;99.90
43225;DHT22;28834;48.720;9.208;2022-09-01T06:06:47;14.10;99.90
43225;DHT22;28834;48.720;9.208;2022-09-01T06:09:15;14.20;99.90
43225;DHT22;28834;48.720;9.208;2022-09-01T06:11:43;14.30;99.90
43225;DHT22;28834;48.720;9.208;2022-09-01T06:14:12;14.30;99.90
43225;DHT22;28834;48.720;9.208;2022-09-01T06:16:38;14.40;99.90
43225;DHT22;28834;48.720;9.208;2022-09-01T06:19:04;14.40;99.90
43225;DHT22;28834;48.720;9.208;2022-09-01T06:21:30;14.50;99.90
43225;DHT22;28834;48.720;9.208;2022-09-01T06:23:56;14.60;99.90
43225;DHT22;28834;48.720;9.208;2022-09-01T06:26:28;14.60;99.90
43225;DHT22;28834;48.720;9.208;2022-09-01T06:28:59;14.70;99.90
43225;DHT22;28834;48.720;9.208;2022-09-01T06:31:27;14.80;99.90
43225;DHT22;28834;48.720;9.208;2022-09-01T06:33:59;14.90;99.90
43225;DHT22;28834;48.720;9.208;2022-09-01T06:36:25;14.90;99.90
43225;DHT22;28834;48.720;9.208;2022-09-01T06:38:51;14.90;99.90
43225;DHT22;28834;48.720;9.208;2022-09-01T06:41:18;15.00;99.90
43225;DHT22;28834;48.720;9.208;2022-09-01T06:43:48;15.10;99.90
43225;DHT22;28834;48.720;9.208;2022-09-01T06:46:15;15.10;99.90
43225;DHT22;28834;48.720;9.208;2022-09-01T06:48:42;15.20;99.90
43225;DHT22;28834;48.720;9.208;2022-09-01T06:51:15;15.20;99.90
43225;DHT22;28834;48.720;9.208;2022-09-01T06:53:43;15.20;99.90
43225;DHT22;28834;48.720;9.208;2022-09-01T06:56:10;15.20;99.90
43225;DHT22;28834;48.720;9.208;2022-09-01T06:58:42;15.30;99.90
43225;DHT22;28834;48.720;9.208;2022-09-01T07:01:13;15.40;99.90
43225;DHT22;28834;48.720;9.208;2022-09-01T07:03:45;15.40;99.90
43225;DHT22;28834;48.720;9.208;2022-09-01T07:06:12;15.50;99.90
43225;DHT22;28834;48.720;9.208;2022-09-01T07:08:40;15.60;99.90
43225;DHT22;28834;48.720;9.208;2022-09-01T07:11:16;15.70;99.90
43225;DHT22;28834;48.720;9.208;2022-09-01T07:13:42;15.70;99.90
43225;DHT22;28834;48.720;9.208;2022-09-01T07:16:15;15.90;99.90
43225;DHT22;28834;48.720;9.208;2022-09-01T07:18:42;15.90;99.90
43225;DHT22;28834;48.720;9.208;2022-09-01T07:21:08;16.00;99.90
43225;DHT22;28834;48.720;9.208;2022-09-01T07:23:33;16.00;99.90
43225;DHT22;28834;48.720;9.208;2022-09-01T07:25:59;16.10;99.90
43225;DHT22;28834;48.720;9.208;2022-09-01T07:28:30;16.10;99.90
43225;DHT22;28834;48.720;9.208;2022-09-01T07:30:57;16.20;99.90
43225;DHT22;28834;48.720;9.208;2022-09-01T07:33:23;16.20;99.90
43225;DHT22;28834;48.720;9.208;2022-09-01T07:35:50;16.20;99.90
43225;DHT22;28834;48.720;9.208;2022-09-01T07:38:20;16.30;99.90
43225;DHT22;28834;48.720;9.208;2022-09-01T07:40:46;16.30;99.90
43225;DHT22;28834;48.720;9.208;2022-09-01T07:43:16;16.30;99.90
43225;DHT22;28834;48.720;9.208;2022-09-01T07:45:46;16.30;99.90
43225;DHT22;28834;48.720;9.208;2022-09-01T07:48:15;16.30;99.90
43225;DHT22;28834;48.720;9.208;2022-09-01T07:50:45;16.40;99.90
43225;DHT22;28834;48.720;9.208;2022-09-01T07:53:22;16.50;99.90
43225;DHT22;28834;48.720;9.208;2022-09-01T07:55:50;16.60;99.90
43225;DHT22;28834;48.720;9.208;2022-09-01T07:58:18;16.60;99.90
43225;DHT22;28834;48.720;9.208;2022-09-01T08:00:44;16.70;99.90
43225;DHT22;28834;48.720;9.208;2022-09-01T08:03:13;16.80;99.90
43225;DHT22;28834;48.720;9.208;2022-09-01T08:05:38;16.80;99.90
43225;DHT22;28834;48.720;9.208;2022-09-01T08:08:05;16.90;99.90
43225;DHT22;28834;48.720;9.208;2022-09-01T08:10:31;17.00;99.90
43225;DHT22;28834;48.720;9.208;2022-09-01T08:12:56;17.00;99.90
43225;DHT22;28834;48.720;9.208;2022-09-01T08:15:23;17.10;99.90
43225;DHT22;28834;48.720;9.208;2022-09-01T08:17:49;17.20;99.90
43225;DHT22;28834;48.720;9.208;2022-09-01T08:20:14;17.30;99.90
43225;DHT22;28834;48.720;9.208;2022-09-01T08:22:40;17.20;99.90
43225;DHT22;28834;48.720;9.208;2022-09-01T08:25:09;17.20;99.90
43225;DHT22;28834;48.720;9.208;2022-09-01T08:27:36;17.20;99.90
43225;DHT22;28834;48.720;9.208;2022-09-01T08:30:08;17.10;99.90
43225;DHT22;28834;48.720;9.208;2022-09-01T08:32:34;17.10;99.90
43225;DHT22;28834;48.720;9.208;2022-09-01T08:35:00;17.00;99.90
43225;DHT22;28834;48.720;9.208;2022-09-01T08:37:27;17.10;99.90
43225;DHT22;28834;48.720;9.208;2022-09-01T08:39:53;17.00;99.90
43225;DHT22;28834;48.720;9.208;2022-09-01T08:45:26;17.10;99.90
43225;DHT22;28834;48.720;9.208;2022-09-01T08:47:55;17.10;99.90
43225;DHT22;28834;48.720;9.208;2022-09-01T08:50:22;17.10;99.90
43225;DHT22;28834;48.720;9.208;2022-09-01T08:52:59;17.10;99.90
43225;DHT22;28834;48.720;9.208;2022-09-01T08:55:38;17.10;99.90
43225;DHT22;28834;48.720;9.208;2022-09-01T08:58:09;17.10;99.90
43225;DHT22;28834;48.720;9.208;2022-09-01T09:00:41;17.20;99.90
43225;DHT22;28834;48.720;9.208;2022-09-01T09:03:38;17.10;99.90
43225;DHT22;28834;48.720;9.208;2022-09-01T09:08:56;17.40;99.90
43225;DHT22;28834;48.720;9.208;2022-09-01T09:11:44;17.40;99.90
43225;DHT22;28834;48.720;9.208;2022-09-01T09:14:29;17.40;99.90
43225;DHT22;28834;48.720;9.208;2022-09-01T09:16:59;17.40;99.90
43225;DHT22;28834;48.720;9.208;2022-09-01T09:19:29;17.50;99.90
43225;DHT22;28834;48.720;9.208;2022-09-01T09:21:57;17.50;99.90
43225;DHT22;28834;48.720;9.208;2022-09-01T09:24:30;17.70;99.90
43225;DHT22;28834;48.720;9.208;2022-09-01T09:27:24;17.80;99.90
43225;DHT22;28834;48.720;9.208;2022-09-01T09:29:54;17.90;99.90
43225;DHT22;28834;48.720;9.208;2022-09-01T09:32:21;18.00;99.90
43225;DHT22;28834;48.720;9.208;2022-09-01T09:34:47;18.00;99.90
43225;DHT22;28834;48.720;9.208;2022-09-01T09:37:29;18.00;99.90
43225;DHT22;28834;48.720;9.208;2022-09-01T09:40:19;18.00;99.90
43225;DHT22;28834;48.720;9.208;2022-09-01T09:45:37;18.10;99.90
43225;DHT22;28834;48.720;9.208;2022-09-01T09:48:06;18.20;99.90
43225;DHT22;28834;48.720;9.208;2022-09-01T09:50:40;18.30;99.90
43225;DHT22;28834;48.720;9.208;2022-09-01T09:53:33;18.30;99.90
43225;DHT22;28834;48.720;9.208;2022-09-01T09:56:19;18.40;99.90
43225;DHT22;28834;48.720;9.208;2022-09-01T09:58:46;18.50;99.90
43225;DHT22;28834;48.720;9.208;2022-09-01T10:01:27;18.50;99.90
43225;DHT22;28834;48.720;9.208;2022-09-01T10:03:59;18.60;99.90
43225;DHT22;28834;48.720;9.208;2022-09-01T10:06:33;18.60;99.90
43225;DHT22;28834;48.720;9.208;2022-09-01T10:09:15;18.70;99.90
43225;DHT22;28834;48.720;9.208;2022-09-01T10:11:48;18.70;99.90
43225;DHT22;28834;48.720;9.208;2022-09-01T10:14:19;18.60;99.90
43225;DHT22;28834;48.720;9.208;2022-09-01T10:16:46;18.60;99.90
43225;DHT22;28834;48.720;9.208;2022-09-01T10:19:15;18.60;99.90
43225;DHT22;28834;48.720;9.208;2022-09-01T10:21:42;18.60;99.90
43225;DHT22;28834;48.720;9.208;2022-09-01T10:24:32;18.70;99.90
43225;DHT22;28834;48.720;9.208;2022-09-01T10:27:09;18.80;99.90
43225;DHT22;28834;48.720;9.208;2022-09-01T10:29:41;18.90;99.90
43225;DHT22;28834;48.720;9.208;2022-09-01T10:32:15;19.00;99.90
43225;DHT22;28834;48.720;9.208;2022-09-01T10:34:41;19.10;99.90
43225;DHT22;28834;48.720;9.208;2022-09-01T10:37:08;19.30;99.90
43225;DHT22;28834;48.720;9.208;2022-09-01T10:42:44;19.50;99.90
43225;DHT22;28834;48.720;9.208;2022-09-01T10:47:47;19.60;99.90
43225;DHT22;28834;48.720;9.208;2022-09-01T10:50:24;19.70;99.90
43225;DHT22;28834;48.720;9.208;2022-09-01T10:53:08;19.80;99.90
43225;DHT22;28834;48.720;9.208;2022-09-01T10:55:58;19.70;99.90
43225;DHT22;28834;48.720;9.208;2022-09-01T10:58:32;19.70;99.90
43225;DHT22;28834;48.720;9.208;2022-09-01T11:01:00;19.80;99.90
43225;DHT22;28834;48.720;9.208;2022-09-01T11:03:36;20.20;99.90
43225;DHT22;28834;48.720;9.208;2022-09-01T11:06:07;20.60;99.90
43225;DHT22;28834;48.720;9.208;2022-09-01T11:16:38;22.10;99.90
43225;DHT22;28834;48.720;9.208;2022-09-01T11:21:46;22.20;99.90
43225;DHT22;28834;48.720;9.208;2022-09-01T11:27:06;21.90;99.90
43225;DHT22;28834;48.720;9.208;2022-09-01T11:29:58;21.50;99.90
43225;DHT22;28834;48.720;9.208;2022-09-01T11:32:31;21.20;99.90
43225;DHT22;28834;48.720;9.208;2022-09-01T11:35:00;20.90;99.90
43225;DHT22;28834;48.720;9.208;2022-09-01T11:37:27;20.70;99.90
43225;DHT22;28834;48.720;9.208;2022-09-01T11:40:02;20.70;99.90
43225;DHT22;28834;48.720;9.208;2022-09-01T11:42:39;20.90;99.90
43225;DHT22;28834;48.720;9.208;2022-09-01T11:45:15;21.20;99.90
43225;DHT22;28834;48.720;9.208;2022-09-01T11:47:44;21.40;99.90
43225;DHT22;28834;48.720;9.208;2022-09-01T11:50:28;21.20;99.90
43225;DHT22;28834;48.720;9.208;2022-09-01T11:53:01;21.10;99.90
43225;DHT22;28834;48.720;9.208;2022-09-01T11:55:45;21.00;99.90
43225;DHT22;28834;48.720;9.208;2022-09-01T11:58:27;20.70;99.90
43225;DHT22;28834;48.720;9.208;2022-09-01T12:00:54;20.50;99.90
43225;DHT22;28834;48.720;9.208;2022-09-01T12:03:22;20.40;99.90
43225;DHT22;28834;48.720;9.208;2022-09-01T12:05:52;20.30;99.90
43225;DHT22;28834;48.720;9.208;2022-09-01T12:08:24;20.10;99.90
43225;DHT22;28834;48.720;9.208;2022-09-01T12:11:02;20.10;99.90
43225;DHT22;28834;48.720;9.208;2022-09-01T12:13:28;20.20;99.90
43225;DHT22;28834;48.720;9.208;2022-09-01T12:15:56;20.30;99.90
43225;DHT22;28834;48.720;9.208;2022-09-01T12:18:35;20.50;99.90
43225;DHT22;28834;48.720;9.208;2022-09-01T12:21:06;20.80;99.90
43225;DHT22;28834;48.720;9.208;2022-09-01T12:23:40;21.10;99.90
43225;DHT22;28834;48.720;9.208;2022-09-01T12:26:17;21.30;99.90
43225;DHT22;28834;48.720;9.208;2022-09-01T12:28:51;21.20;99.90
43225;DHT22;28834;48.720;9.208;2022-09-01T12:31:21;21.40;99.90
43225;DHT22;28834;48.720;9.208;2022-09-01T12:33:48;21.60;99.90
43225;DHT22;28834;48.720;9.208;2022-09-01T12:36:41;21.80;99.90
43225;DHT22;28834;48.720;9.208;2022-09-01T12:39:23;22.00;99.90
43225;DHT22;28834;48.720;9.208;2022-09-01T12:42:40;22.00;99.90
43225;DHT22;28834;48.720;9.208;2022-09-01T12:45:00;22.00;99.90
43225;DHT22;28834;48.720;9.208;2022-09-01T12:49:59;21.70;99.90
43225;DHT22;28834;48.720;9.208;2022-09-01T12:52:26;21.80;99.90
43225;DHT22;28834;48.720;9.208;2022-09-01T12:57:33;21.50;99.90
43225;DHT22;28834;48.720;9.208;2022-09-01T13:02:38;21.20;99.90
43225;DHT22;28834;48.720;9.208;2022-09-01T13:07:51;21.00;99.90
43225;DHT22;28834;48.720;9.208;2022-09-01T13:10:16;20.90;99.90
43225;DHT22;28834;48.720;9.208;2022-09-01T13:12:43;20.90;99.90
43225;DHT22;28834;48.720;9.208;2022-09-01T13:15:10;20.90;99.90
43225;DHT22;28834;48.720;9.208;2022-09-01T13:17:36;21.00;99.90
43225;DHT22;28834;48.720;9.208;2022-09-01T13:20:04;21.00;99.90
43225;DHT22;28834;48.720;9.208;2022-09-01T13:22:30;21.00;99.00
43225;DHT22;28834;48.720;9.208;2022-09-01T13:24:55;21.00;99.90
43225;DHT22;28834;48.720;9.208;2022-09-01T13:27:21;21.20;99.40
43225;DHT22;28834;48.720;9.208;2022-09-01T13:29:48;21.40;99.30
43225;DHT22;28834;48.720;9.208;2022-09-01T13:32:15;21.50;99.60
43225;DHT22;28834;48.720;9.208;2022-09-01T13:34:41;21.60;99.70
43225;DHT22;28834;48.720;9.208;2022-09-01T13:37:07;21.90;99.90
43225;DHT22;28834;48.720;9.208;2022-09-01T13:39:32;22.00;98.80
43225;DHT22;28834;48.720;9.208;2022-09-01T13:41:58;22.00;98.40
43225;DHT22;28834;48.720;9.208;2022-09-01T13:44:23;22.00;98.50
43225;DHT22;28834;48.720;9.208;2022-09-01T13:46:49;22.10;99.90
43225;DHT22;28834;48.720;9.208;2022-09-01T13:49:14;22.20;99.90
43225;DHT22;28834;48.720;9.208;2022-09-01T13:51:40;22.30;98.90
43225;DHT22;28834;48.720;9.208;2022-09-01T13:54:06;22.40;99.20
43225;DHT22;28834;48.720;9.208;2022-09-01T13:56:31;22.50;98.00
43225;DHT22;28834;48.720;9.208;2022-09-01T13:58:57;22.50;99.10
43225;DHT22;28834;48.720;9.208;2022-09-01T14:01:22;22.40;97.60
43225;DHT22;28834;48.720;9.208;2022-09-01T14:03:49;22.20;97.40
43225;DHT22;28834;48.720;9.208;2022-09-01T14:06:15;21.90;98.00
43225;DHT22;28834;48.720;9.208;2022-09-01T14:08:40;21.80;98.40
43225;DHT22;28834;48.720;9.208;2022-09-01T14:11:06;21.60;98.90
43225;DHT22;28834;48.720;9.208;2022-09-01T14:13:33;21.40;98.80
43225;DHT22;28834;48.720;9.208;2022-09-01T14:16:00;21.30;99.90
43225;DHT22;28834;48.720;9.208;2022-09-01T14:18:26;21.10;99.90
43225;DHT22;28834;48.720;9.208;2022-09-01T14:20:57;21.10;99.70
43225;DHT22;28834;48.720;9.208;2022-09-01T14:23:26;21.00;99.90
43225;DHT22;28834;48.720;9.208;2022-09-01T14:25:52;20.90;99.30
43225;DHT22;28834;48.720;9.208;2022-09-01T14:28:19;20.80;99.20
43225;DHT22;28834;48.720;9.208;2022-09-01T14:30:45;20.80;99.40
43225;DHT22;28834;48.720;9.208;2022-09-01T14:33:11;20.70;98.30
43225;DHT22;28834;48.720;9.208;2022-09-01T14:35:42;20.70;98.30
43225;DHT22;28834;48.720;9.208;2022-09-01T14:38:08;20.70;98.10
43225;DHT22;28834;48.720;9.208;2022-09-01T14:40:36;20.80;97.60
43225;DHT22;28834;48.720;9.208;2022-09-01T14:43:04;20.90;97.30
43225;DHT22;28834;48.720;9.208;2022-09-01T14:45:30;21.20;96.70
43225;DHT22;28834;48.720;9.208;2022-09-01T14:47:58;21.50;96.00
43225;DHT22;28834;48.720;9.208;2022-09-01T14:50:25;21.70;95.20
43225;DHT22;28834;48.720;9.208;2022-09-01T14:52:54;22.00;94.80
43225;DHT22;28834;48.720;9.208;2022-09-01T14:55:22;22.00;94.00
43225;DHT22;28834;48.720;9.208;2022-09-01T14:57:49;21.90;93.10
43225;DHT22;28834;48.720;9.208;2022-09-01T15:00:15;21.90;94.40
43225;DHT22;28834;48.720;9.208;2022-09-01T15:02:42;21.80;94.60
43225;DHT22;28834;48.720;9.208;2022-09-01T15:05:08;21.60;95.00
43225;DHT22;28834;48.720;9.208;2022-09-01T15:07:34;21.50;94.50
43225;DHT22;28834;48.720;9.208;2022-09-01T15:10:01;21.50;94.90
43225;DHT22;28834;48.720;9.208;2022-09-01T15:12:27;21.40;95.30
43225;DHT22;28834;48.720;9.208;2022-09-01T15:14:55;21.40;95.80
43225;DHT22;28834;48.720;9.208;2022-09-01T15:17:21;21.40;97.80
43225;DHT22;28834;48.720;9.208;2022-09-01T15:19:46;21.30;96.30
43225;DHT22;28834;48.720;9.208;2022-09-01T15:22:12;21.30;95.70
43225;DHT22;28834;48.720;9.208;2022-09-01T15:24:38;21.30;95.90
43225;DHT22;28834;48.720;9.208;2022-09-01T15:27:04;21.40;95.60
43225;DHT22;28834;48.720;9.208;2022-09-01T15:29:31;21.60;95.30
43225;DHT22;28834;48.720;9.208;2022-09-01T15:31:59;21.70;94.80
43225;DHT22;28834;48.720;9.208;2022-09-01T15:34:26;21.80;95.60
43225;DHT22;28834;48.720;9.208;2022-09-01T15:36:51;21.70;95.50
43225;DHT22;28834;48.720;9.208;2022-09-01T15:39:17;21.60;95.70
43225;DHT22;28834;48.720;9.208;2022-09-01T15:41:43;21.50;95.60
43225;DHT22;28834;48.720;9.208;2022-09-01T15:44:08;21.40;96.30
43225;DHT22;28834;48.720;9.208;2022-09-01T15:46:35;21.20;95.40
43225;DHT22;28834;48.720;9.208;2022-09-01T15:49:05;21.10;95.90
43225;DHT22;28834;48.720;9.208;2022-09-01T15:51:36;21.00;96.50
43225;DHT22;28834;48.720;9.208;2022-09-01T15:54:14;20.90;96.80
43225;DHT22;28834;48.720;9.208;2022-09-01T15:56:40;20.80;96.70
43225;DHT22;28834;48.720;9.208;2022-09-01T15:59:07;20.80;96.80
43225;DHT22;28834;48.720;9.208;2022-09-01T16:01:35;20.70;97.20
43225;DHT22;28834;48.720;9.208;2022-09-01T16:04:03;20.70;97.20
43225;DHT22;28834;48.720;9.208;2022-09-01T16:06:29;20.60;96.60
43225;DHT22;28834;48.720;9.208;2022-09-01T16:08:54;20.50;96.50
43225;DHT22;28834;48.720;9.208;2022-09-01T16:11:21;20.50;96.90
43225;DHT22;28834;48.720;9.208;2022-09-01T16:13:49;20.50;97.10
43225;DHT22;28834;48.720;9.208;2022-09-01T16:22:21;20.40;96.80
43225;DHT22;28834;48.720;9.208;2022-09-01T16:24:49;20.40;97.20
43225;DHT22;28834;48.720;9.208;2022-09-01T16:27:19;20.30;97.50
43225;DHT22;28834;48.720;9.208;2022-09-01T16:29:51;20.30;97.30
43225;DHT22;28834;48.720;9.208;2022-09-01T16:32:19;20.30;98.50